sensor_id;sensor_type;location;lat;lon;timestamp;pressure;altitude;pressure_sealevel;temperature;humidity
42847;BME280;75159;49.916;14.536;2024-01-25T00:04:36;97281.38;;;6.45;62.71
42847;BME280;75159;49.916;14.536;2024-01-25T00:14:57;97279.94;;;6.40;62.70
42847;BME280;75159;49.916;14.536;2024-01-25T00:25:18;97287.78;;;6.39;62.84
42847;BME280;75159;49.916;14.536;2024-01-25T00:35:39;97292.88;;;6.40;62.65
42847;BME280;75159;49.916;14.536;2024-01-25T00:46:00;97286.34;;;6.35;62.58
42847;BME280;75159;49.916;14.536;2024-01-25T00:56:22;97297.91;;;6.29;62.87
42847;BME280;75159;49.916;14.536;2024-01-25T01:06:44;97323.38;;;6.22;63.04
42847;BME280;75159;49.916;14.536;2024-01-25T01:17:05;97313.25;;;6.19;63.20
42847;BME280;75159;49.916;14.536;2024-01-25T01:27:26;97315.09;;;6.17;63.13
42847;BME280;75159;49.916;14.536;2024-01-25T01:37:47;97311.84;;;6.14;63.20
42847;BME280;75159;49.916;14.536;2024-01-25T01:48:08;97319.53;;;6.15;63.17
42847;BME280;75159;49.916;14.536;2024-01-25T01:58:30;97319.63;;;6.14;63.28
42847;BME280;75159;49.916;14.536;2024-01-25T02:08:52;97311.84;;;6.14;63.28
42847;BME280;75159;49.916;14.536;2024-01-25T02:19:14;97300.88;;;6.10;63.28
42847;BME280;75159;49.916;14.536;2024-01-25T02:29:34;97289.69;;;6.09;63.05
42847;BME280;75159;49.916;14.536;2024-01-25T02:39:55;97284.72;;;6.06;62.92
42847;BME280;75159;49.916;14.536;2024-01-25T02:50:16;97294.22;;;6.06;62.67
42847;BME280;75159;49.916;14.536;2024-01-25T03:00:37;97299.50;;;6.04;63.07
42847;BME280;75159;49.916;14.536;2024-01-25T03:10:58;97301.38;;;6.02;62.87
42847;BME280;75159;49.916;14.536;2024-01-25T03:21:19;97304.88;;;6.01;63.26
42847;BME280;75159;49.916;14.536;2024-01-25T03:31:40;97309.53;;;5.96;63.35
42847;BME280;75159;49.916;14.536;2024-01-25T03:42:01;97311.06;;;5.99;63.60
42847;BME280;75159;49.916;14.536;2024-01-25T03:52:22;97336.13;;;5.98;63.73
42847;BME280;75159;49.916;14.536;2024-01-25T04:02:43;97334.38;;;5.99;63.37
42847;BME280;75159;49.916;14.536;2024-01-25T04:13:04;97316.34;;;5.97;63.63
42847;BME280;75159;49.916;14.536;2024-01-25T04:23:25;97298.44;;;5.94;63.80
42847;BME280;75159;49.916;14.536;2024-01-25T04:33:46;97313.38;;;6.03;63.68
42847;BME280;75159;49.916;14.536;2024-01-25T04:44:09;97324.19;;;5.95;63.59
42847;BME280;75159;49.916;14.536;2024-01-25T04:54:30;97326.91;;;5.94;63.22
42847;BME280;75159;49.916;14.536;2024-01-25T05:04:50;97340.13;;;5.89;63.33
42847;BME280;75159;49.916;14.536;2024-01-25T05:15:11;97328.88;;;5.76;63.43
42847;BME280;75159;49.916;14.536;2024-01-25T05:25:33;97323.34;;;5.68;63.74
42847;BME280;75159;49.916;14.536;2024-01-25T05:35:53;97327.59;;;5.69;63.78
42847;BME280;75159;49.916;14.536;2024-01-25T05:46:14;97341.66;;;5.64;63.77
42847;BME280;75159;49.916;14.536;2024-01-25T05:56:35;97352.28;;;5.60;63.76
42847;BME280;75159;49.916;14.536;2024-01-25T06:06:56;97367.03;;;6.01;65.39
42847;BME280;75159;49.916;14.536;2024-01-25T06:17:18;97353.72;;;6.20;63.19
42847;BME280;75159;49.916;14.536;2024-01-25T06:27:38;97370.94;;;5.79;63.46
42847;BME280;75159;49.916;14.536;2024-01-25T06:37:59;97380.41;;;5.66;62.60
42847;BME280;75159;49.916;14.536;2024-01-25T06:48:20;97388.69;;;5.57;62.49
42847;BME280;75159;49.916;14.536;2024-01-25T06:58:41;97417.16;;;5.57;62.36
42847;BME280;75159;49.916;14.536;2024-01-25T07:09:02;97414.75;;;5.54;62.25
42847;BME280;75159;49.916;14.536;2024-01-25T07:19:24;97410.72;;;5.49;61.99
42847;BME280;75159;49.916;14.536;2024-01-25T07:29:45;97403.59;;;5.53;62.51
42847;BME280;75159;49.916;14.536;2024-01-25T07:40:08;97414.97;;;5.51;62.59
42847;BME280;75159;49.916;14.536;2024-01-25T07:50:29;97422.06;;;5.47;62.10
42847;BME280;75159;49.916;14.536;2024-01-25T08:00:50;97424.56;;;5.48;62.09
42847;BME280;75159;49.916;14.536;2024-01-25T08:11:12;97453.66;;;5.52;61.53
42847;BME280;75159;49.916;14.536;2024-01-25T08:21:33;97463.00;;;5.55;61.67
42847;BME280;75159;49.916;14.536;2024-01-25T08:31:56;97475.47;;;5.62;61.99
42847;BME280;75159;49.916;14.536;2024-01-25T08:42:18;97490.47;;;5.72;61.67
42847;BME280;75159;49.916;14.536;2024-01-25T08:52:39;97491.38;;;5.85;61.77
42847;BME280;75159;49.916;14.536;2024-01-25T09:03:01;97494.91;;;5.99;61.44
42847;BME280;75159;49.916;14.536;2024-01-25T09:13:22;97488.41;;;6.20;61.70
42847;BME280;75159;49.916;14.536;2024-01-25T09:23:43;97469.31;;;6.50;60.99
42847;BME280;75159;49.916;14.536;2024-01-25T09:34:05;97480.16;;;6.70;60.49
42847;BME280;75159;49.916;14.536;2024-01-25T09:44:27;97481.56;;;6.89;60.65
42847;BME280;75159;49.916;14.536;2024-01-25T09:54:48;97478.59;;;6.95;59.98
42847;BME280;75159;49.916;14.536;2024-01-25T10:05:10;97494.06;;;7.09;59.87
42847;BME280;75159;49.916;14.536;2024-01-25T10:15:31;97503.13;;;7.29;60.08
42847;BME280;75159;49.916;14.536;2024-01-25T10:25:52;97521.59;;;7.38;59.59
42847;BME280;75159;49.916;14.536;2024-01-25T10:36:13;97522.72;;;7.33;59.35
42847;BME280;75159;49.916;14.536;2024-01-25T10:46:35;97525.56;;;7.43;59.25
42847;BME280;75159;49.916;14.536;2024-01-25T10:56:58;97523.09;;;7.55;58.82
42847;BME280;75159;49.916;14.536;2024-01-25T11:07:20;97528.19;;;7.69;58.82
42847;BME280;75159;49.916;14.536;2024-01-25T11:17:41;97531.31;;;7.87;58.72
42847;BME280;75159;49.916;14.536;2024-01-25T11:28:04;97510.63;;;7.99;57.93
42847;BME280;75159;49.916;14.536;2024-01-25T11:38:25;97501.22;;;8.22;58.57
42847;BME280;75159;49.916;14.536;2024-01-25T11:48:46;97485.88;;;8.43;57.90
42847;BME280;75159;49.916;14.536;2024-01-25T11:59:08;97473.44;;;8.35;57.73
42847;BME280;75159;49.916;14.536;2024-01-25T12:09:29;97488.22;;;8.35;57.66
42847;BME280;75159;49.916;14.536;2024-01-25T12:19:50;97519.75;;;8.17;56.90
42847;BME280;75159;49.916;14.536;2024-01-25T12:30:11;97542.50;;;7.88;57.18
42847;BME280;75159;49.916;14.536;2024-01-25T12:40:32;97562.88;;;7.68;57.04
42847;BME280;75159;49.916;14.536;2024-01-25T12:50:54;97580.31;;;7.66;57.25
42847;BME280;75159;49.916;14.536;2024-01-25T13:01:15;97572.72;;;7.89;57.23
42847;BME280;75159;49.916;14.536;2024-01-25T13:11:37;97583.75;;;8.05;56.77
42847;BME280;75159;49.916;14.536;2024-01-25T13:21:58;97572.00;;;7.87;56.68
42847;BME280;75159;49.916;14.536;2024-01-25T13:32:19;97580.13;;;7.69;56.67
42847;BME280;75159;49.916;14.536;2024-01-25T13:42:40;97587.16;;;7.67;57.00
42847;BME280;75159;49.916;14.536;2024-01-25T13:53:00;97584.69;;;7.78;56.90
42847;BME280;75159;49.916;14.536;2024-01-25T14:03:21;97567.13;;;7.69;56.67
42847;BME280;75159;49.916;14.536;2024-01-25T14:13:43;97586.28;;;7.41;56.25
42847;BME280;75159;49.916;14.536;2024-01-25T14:24:04;97619.97;;;7.28;56.54
42847;BME280;75159;49.916;14.536;2024-01-25T14:34:25;97638.72;;;7.19;56.78
42847;BME280;75159;49.916;14.536;2024-01-25T14:44:46;97645.50;;;7.07;57.24
42847;BME280;75159;49.916;14.536;2024-01-25T14:55:07;97647.66;;;7.00;56.86
42847;BME280;75159;49.916;14.536;2024-01-25T15:05:28;97645.75;;;7.71;58.42
42847;BME280;75159;49.916;14.536;2024-01-25T15:15:49;97637.41;;;7.26;57.42
42847;BME280;75159;49.916;14.536;2024-01-25T15:26:10;97638.88;;;7.03;57.41
42847;BME280;75159;49.916;14.536;2024-01-25T15:36:31;97644.28;;;6.85;57.74
42847;BME280;75159;49.916;14.536;2024-01-25T15:46:52;97649.38;;;6.72;57.99
42847;BME280;75159;49.916;14.536;2024-01-25T15:57:13;97653.28;;;6.65;57.85
42847;BME280;75159;49.916;14.536;2024-01-25T16:07:34;97669.31;;;6.57;57.95
42847;BME280;75159;49.916;14.536;2024-01-25T16:17:55;97678.94;;;6.55;58.12
42847;BME280;75159;49.916;14.536;2024-01-25T16:28:16;97697.59;;;6.46;57.89
42847;BME280;75159;49.916;14.536;2024-01-25T16:38:38;97685.47;;;6.32;58.30
42847;BME280;75159;49.916;14.536;2024-01-25T16:48:59;97690.72;;;6.16;58.58
42847;BME280;75159;49.916;14.536;2024-01-25T16:59:20;97708.66;;;6.19;58.61
42847;BME280;75159;49.916;14.536;2024-01-25T17:09:41;97722.34;;;6.06;58.79
42847;BME280;75159;49.916;14.536;2024-01-25T17:20:04;97723.09;;;6.08;58.73
42847;BME280;75159;49.916;14.536;2024-01-25T17:30:26;97716.91;;;5.95;58.33
42847;BME280;75159;49.916;14.536;2024-01-25T17:40:46;97708.53;;;5.75;58.83
42847;BME280;75159;49.916;14.536;2024-01-25T17:51:07;97724.09;;;5.59;58.87
42847;BME280;75159;49.916;14.536;2024-01-25T18:01:29;97734.69;;;5.39;58.70
42847;BME280;75159;49.916;14.536;2024-01-25T18:11:50;97746.63;;;5.41;59.13
42847;BME280;75159;49.916;14.536;2024-01-25T18:22:13;97749.03;;;5.44;59.68
42847;BME280;75159;49.916;14.536;2024-01-25T18:32:34;97750.28;;;5.53;59.63
42847;BME280;75159;49.916;14.536;2024-01-25T18:42:55;97758.22;;;5.50;59.19
42847;BME280;75159;49.916;14.536;2024-01-25T18:53:15;97758.63;;;5.26;59.44
42847;BME280;75159;49.916;14.536;2024-01-25T19:03:37;97758.59;;;4.94;59.66
42847;BME280;75159;49.916;14.536;2024-01-25T19:13:58;97755.38;;;4.73;60.03
42847;BME280;75159;49.916;14.536;2024-01-25T19:24:19;97755.03;;;4.79;60.08
42847;BME280;75159;49.916;14.536;2024-01-25T19:34:43;97762.91;;;4.94;60.27
42847;BME280;75159;49.916;14.536;2024-01-25T19:45:05;97759.69;;;4.72;60.08
42847;BME280;75159;49.916;14.536;2024-01-25T19:55:26;97751.84;;;4.40;59.99
42847;BME280;75159;49.916;14.536;2024-01-25T20:05:47;97758.84;;;4.38;60.52
42847;BME280;75159;49.916;14.536;2024-01-25T20:16:08;97762.03;;;4.43;61.00
42847;BME280;75159;49.916;14.536;2024-01-25T20:26:29;97770.66;;;4.60;61.41
42847;BME280;75159;49.916;14.536;2024-01-25T20:36:50;97769.13;;;4.73;61.63
42847;BME280;75159;49.916;14.536;2024-01-25T20:47:11;97777.53;;;4.77;61.59
42847;BME280;75159;49.916;14.536;2024-01-25T20:57:32;97774.00;;;4.62;61.79
42847;BME280;75159;49.916;14.536;2024-01-25T21:07:53;97767.47;;;4.55;61.31
42847;BME280;75159;49.916;14.536;2024-01-25T21:18:15;97774.53;;;4.51;61.64
42847;BME280;75159;49.916;14.536;2024-01-25T21:28:35;97772.06;;;4.32;62.11
42847;BME280;75159;49.916;14.536;2024-01-25T21:38:56;97776.47;;;4.30;62.13
42847;BME280;75159;49.916;14.536;2024-01-25T21:49:17;97780.28;;;4.23;61.74
42847;BME280;75159;49.916;14.536;2024-01-25T21:59:40;97782.09;;;4.21;62.04
42847;BME280;75159;49.916;14.536;2024-01-25T22:10:02;97790.66;;;4.21;62.13
42847;BME280;75159;49.916;14.536;2024-01-25T22:20:23;97790.88;;;4.17;62.18
42847;BME280;75159;49.916;14.536;2024-01-25T22:30:45;97792.81;;;4.31;62.53
42847;BME280;75159;49.916;14.536;2024-01-25T22:41:05;97795.81;;;4.21;62.14
42847;BME280;75159;49.916;14.536;2024-01-25T22:51:26;97797.22;;;4.29;62.47
42847;BME280;75159;49.916;14.536;2024-01-25T23:01:47;97802.19;;;4.32;62.39
42847;BME280;75159;49.916;14.536;2024-01-25T23:12:08;97797.03;;;4.32;62.10
42847;BME280;75159;49.916;14.536;2024-01-25T23:22:29;97796.22;;;4.31;62.45
42847;BME280;75159;49.916;14.536;2024-01-25T23:32:49;97793.16;;;4.40;62.50
42847;BME280;75159;49.916;14.536;2024-01-25T23:43:11;97799.47;;;4.35;62.64
42847;BME280;75159;49.916;14.536;2024-01-25T23:53:32;97798.03;;;4.29;62.48
